createdAt,value
2023-04-21T00:00:41.617Z,1005.70
2023-04-21T00:02:02.614Z,1005.68
2023-04-21T00:03:02.716Z,1005.71
2023-04-21T00:03:41.692Z,1005.71
2023-04-21T00:04:41.620Z,1005.68
2023-04-21T00:05:41.569Z,1005.68
2023-04-21T00:07:02.421Z,1005.69
2023-04-21T00:08:02.358Z,1005.68
2023-04-21T00:08:41.325Z,1005.66
2023-04-21T00:09:41.294Z,1005.65
2023-04-21T00:10:41.267Z,1005.65
2023-04-21T00:12:02.239Z,1005.64
2023-04-21T00:13:02.181Z,1005.65
2023-04-21T00:13:41.160Z,1005.63
2023-04-21T00:14:41.140Z,1005.66
2023-04-21T00:15:41.164Z,1005.62
2023-04-21T00:17:02.040Z,1005.63
2023-04-21T00:18:02.108Z,1005.64
2023-04-21T00:18:40.965Z,1005.59
2023-04-21T00:19:41.000Z,1005.58
2023-04-21T00:20:40.909Z,1005.54
2023-04-21T00:22:01.863Z,1005.51
2023-04-21T00:23:01.847Z,1005.46
2023-04-21T00:23:40.787Z,1005.44
2023-04-21T00:24:40.743Z,1005.41
2023-04-21T00:25:40.737Z,1005.42
2023-04-21T00:27:01.716Z,1005.40
2023-04-21T00:28:01.641Z,1005.41
2023-04-21T00:28:40.609Z,1005.39
2023-04-21T00:29:40.595Z,1005.39
2023-04-21T00:30:40.532Z,1005.39
2023-04-21T00:32:01.615Z,1005.36
2023-04-21T00:33:01.535Z,1005.43
2023-04-21T00:33:40.426Z,1005.39
2023-04-21T00:34:40.391Z,1005.41
2023-04-21T00:35:40.348Z,1005.39
2023-04-21T00:37:01.328Z,1005.38
2023-04-21T00:38:01.306Z,1005.37
2023-04-21T00:38:40.245Z,1005.35
2023-04-21T00:39:40.222Z,1005.38
2023-04-21T00:40:40.169Z,1005.37
2023-04-21T00:42:01.153Z,1005.32
2023-04-21T00:43:01.109Z,1005.35
2023-04-21T00:43:40.071Z,1005.32
2023-04-21T00:44:40.025Z,1005.32
2023-04-21T00:45:40.032Z,1005.30
2023-04-21T00:47:00.991Z,1005.32
2023-04-21T00:48:00.986Z,1005.27
2023-04-21T00:48:39.877Z,1005.27
2023-04-21T00:49:39.885Z,1005.26
2023-04-21T00:50:39.802Z,1005.29
2023-04-21T00:52:00.798Z,1005.29
2023-04-21T00:53:00.734Z,1005.29
2023-04-21T00:53:39.719Z,1005.29
2023-04-21T00:54:39.667Z,1005.29
2023-04-21T00:55:39.662Z,1005.32
2023-04-21T00:57:02.376Z,1005.31
2023-04-21T00:58:00.549Z,1005.34
2023-04-21T00:58:39.519Z,1005.32
2023-04-21T00:59:39.498Z,1005.33
2023-04-21T01:00:39.501Z,1005.29
2023-04-21T01:02:00.525Z,1005.35
2023-04-21T01:03:00.538Z,1005.30
2023-04-21T01:03:39.428Z,1005.31
2023-04-21T01:04:39.300Z,1005.36
2023-04-21T01:05:39.277Z,1005.34
2023-04-21T01:07:00.237Z,1005.34
2023-04-21T01:08:00.207Z,1005.35
2023-04-21T01:08:39.168Z,1005.35
2023-04-21T01:09:39.141Z,1005.32
2023-04-21T01:10:39.076Z,1005.33
2023-04-21T01:12:00.139Z,1005.31
2023-04-21T01:13:00.013Z,1005.35
2023-04-21T01:13:38.986Z,1005.39
2023-04-21T01:14:38.940Z,1005.37
2023-04-21T01:15:38.915Z,1005.40
2023-04-21T01:16:59.939Z,1005.38
2023-04-21T01:17:59.900Z,1005.37
2023-04-21T01:18:38.817Z,1005.40
2023-04-21T01:19:38.775Z,1005.41
2023-04-21T01:20:38.716Z,1005.40
2023-04-21T01:21:59.695Z,1005.39
2023-04-21T01:22:59.644Z,1005.37
2023-04-21T01:23:38.632Z,1005.40
2023-04-21T01:24:38.577Z,1005.38
2023-04-21T01:25:38.570Z,1005.37
2023-04-21T01:26:59.508Z,1005.40
2023-04-21T01:27:59.503Z,1005.38
2023-04-21T01:28:38.464Z,1005.36
2023-04-21T01:29:38.427Z,1005.36
2023-04-21T01:30:38.357Z,1005.35
2023-04-21T01:31:59.403Z,1005.34
2023-04-21T01:32:59.317Z,1005.32
2023-04-21T01:33:38.285Z,1005.33
2023-04-21T01:34:38.220Z,1005.32
2023-04-21T01:35:38.195Z,1005.28
2023-04-21T01:36:59.144Z,1005.27
2023-04-21T01:37:59.120Z,1005.28
2023-04-21T01:38:38.073Z,1005.26
2023-04-21T01:39:38.077Z,1005.25
2023-04-21T01:40:38.013Z,1005.24
2023-04-21T01:41:58.982Z,1005.29
2023-04-21T01:42:58.923Z,1005.28
2023-04-21T01:43:37.905Z,1005.26
2023-04-21T01:44:37.863Z,1005.26
2023-04-21T01:45:37.852Z,1005.29
2023-04-21T01:46:58.777Z,1005.28
2023-04-21T01:47:58.777Z,1005.29
2023-04-21T01:48:37.711Z,1005.28
2023-04-21T01:49:37.688Z,1005.28
2023-04-21T01:50:37.663Z,1005.30
2023-04-21T01:51:58.607Z,1005.28
2023-04-21T01:52:58.566Z,1005.27
2023-04-21T01:53:37.549Z,1005.28
2023-04-21T01:54:37.512Z,1005.26
2023-04-21T01:55:37.477Z,1005.23
2023-04-21T01:56:58.502Z,1005.22
2023-04-21T01:57:58.397Z,1005.23
2023-04-21T01:58:37.352Z,1005.28
2023-04-21T01:59:37.336Z,1005.29
2023-04-21T02:00:37.280Z,1005.27
2023-04-21T02:01:58.430Z,1005.25
2023-04-21T02:02:58.346Z,1005.23
2023-04-21T02:03:37.502Z,1005.26
2023-04-21T02:04:37.195Z,1005.20
2023-04-21T02:05:37.125Z,1005.23
2023-04-21T02:06:58.068Z,1005.22
2023-04-21T02:07:58.028Z,1005.21
2023-04-21T02:08:36.998Z,1005.23
2023-04-21T02:09:36.945Z,1005.27
2023-04-21T02:10:36.937Z,1005.21
2023-04-21T02:11:57.905Z,1005.21
2023-04-21T02:12:57.850Z,1005.19
2023-04-21T02:13:36.827Z,1005.21
2023-04-21T02:14:36.785Z,1005.20
2023-04-21T02:15:36.776Z,1005.18
2023-04-21T02:16:57.702Z,1005.20
2023-04-21T02:17:57.703Z,1005.18
2023-04-21T02:18:36.625Z,1005.22
2023-04-21T02:19:36.600Z,1005.21
2023-04-21T02:20:36.551Z,1005.20
2023-04-21T02:21:57.516Z,1005.18
2023-04-21T02:22:57.485Z,1005.22
2023-04-21T02:23:36.471Z,1005.25
2023-04-21T02:24:36.409Z,1005.23
2023-04-21T02:25:36.398Z,1005.20
2023-04-21T02:26:57.339Z,1005.25
2023-04-21T02:27:57.317Z,1005.23
2023-04-21T02:28:36.488Z,1005.28
2023-04-21T02:29:36.240Z,1005.25
2023-04-21T02:30:36.188Z,1005.26
2023-04-21T02:32:02.784Z,1005.24
2023-04-21T02:32:57.229Z,1005.24
2023-04-21T02:33:36.099Z,1005.26
2023-04-21T02:34:36.042Z,1005.28
2023-04-21T02:35:36.035Z,1005.27
2023-04-21T02:36:56.965Z,1005.23
2023-04-21T02:37:56.928Z,1005.24
2023-04-21T02:38:35.924Z,1005.24
2023-04-21T02:39:35.885Z,1005.24
2023-04-21T02:40:35.843Z,1005.22
2023-04-21T02:41:56.867Z,1005.25
2023-04-21T02:42:56.845Z,1005.25
2023-04-21T02:43:35.742Z,1005.26
2023-04-21T02:44:35.699Z,1005.30
2023-04-21T02:45:35.645Z,1005.28
2023-04-21T02:46:56.728Z,1005.29
2023-04-21T02:47:56.699Z,1005.27
2023-04-21T02:48:35.584Z,1005.23
2023-04-21T02:49:35.522Z,1005.23
2023-04-21T02:50:35.482Z,1005.23
2023-04-21T02:51:56.450Z,1005.26
2023-04-21T02:52:56.403Z,1005.24
2023-04-21T02:53:35.358Z,1005.26
2023-04-21T02:54:35.350Z,1005.22
2023-04-21T02:55:35.304Z,1005.24
2023-04-21T02:56:56.249Z,1005.21
2023-04-21T02:57:56.209Z,1005.27
2023-04-21T02:58:35.169Z,1005.23
2023-04-21T02:59:35.140Z,1005.25
2023-04-21T03:00:35.144Z,1005.25
2023-04-21T03:01:56.078Z,1005.25
2023-04-21T03:02:56.150Z,1005.23
2023-04-21T03:03:35.059Z,1005.26
2023-04-21T03:04:35.028Z,1005.19
2023-04-21T03:05:34.934Z,1005.20
2023-04-21T03:06:55.886Z,1005.23
2023-04-21T03:07:55.854Z,1005.25
2023-04-21T03:08:34.832Z,1005.22
2023-04-21T03:09:34.776Z,1005.26
2023-04-21T03:10:34.793Z,1005.21
2023-04-21T03:11:55.713Z,1005.24
2023-04-21T03:12:55.657Z,1005.20
2023-04-21T03:13:34.666Z,1005.21
2023-04-21T03:14:34.598Z,1005.26
2023-04-21T03:15:34.587Z,1005.23
2023-04-21T03:16:55.670Z,1005.20
2023-04-21T03:17:55.585Z,1005.22
2023-04-21T03:18:34.453Z,1005.23
2023-04-21T03:19:34.449Z,1005.24
2023-04-21T03:20:34.377Z,1005.21
2023-04-21T03:21:55.352Z,1005.22
2023-04-21T03:22:55.310Z,1005.23
2023-04-21T03:23:34.300Z,1005.20
2023-04-21T03:24:34.243Z,1005.21
2023-04-21T03:25:34.224Z,1005.19
2023-04-21T03:26:55.161Z,1005.17
2023-04-21T03:27:55.149Z,1005.11
2023-04-21T03:28:34.090Z,1005.15
2023-04-21T03:29:34.079Z,1005.15
2023-04-21T03:30:34.014Z,1005.11
2023-04-21T03:31:55.062Z,1005.12
2023-04-21T03:32:55.047Z,1005.15
2023-04-21T03:33:33.939Z,1005.12
2023-04-21T03:34:33.877Z,1005.16
2023-04-21T03:35:33.855Z,1005.19
2023-04-21T03:36:54.807Z,1005.20
2023-04-21T03:37:54.836Z,1005.26
2023-04-21T03:38:33.733Z,1005.23
2023-04-21T03:39:33.722Z,1005.23
2023-04-21T03:40:33.669Z,1005.25
2023-04-21T03:41:54.640Z,1005.26
2023-04-21T03:42:54.578Z,1005.25
2023-04-21T03:43:33.580Z,1005.25
2023-04-21T03:44:33.520Z,1005.22
2023-04-21T03:45:33.511Z,1005.22
2023-04-21T03:46:54.452Z,1005.21
2023-04-21T03:47:54.462Z,1005.22
2023-04-21T03:48:33.409Z,1005.22
2023-04-21T03:49:33.345Z,1005.16
2023-04-21T03:50:33.309Z,1005.19
2023-04-21T03:51:54.253Z,1005.17
2023-04-21T03:52:54.209Z,1005.22
2023-04-21T03:53:33.179Z,1005.19
2023-04-21T03:54:33.164Z,1005.23
2023-04-21T03:55:33.127Z,1005.20
2023-04-21T03:56:54.072Z,1005.23
2023-04-21T03:57:54.069Z,1005.25
2023-04-21T03:58:33.011Z,1005.21
2023-04-21T03:59:32.970Z,1005.22
2023-04-21T04:00:32.962Z,1005.23
2023-04-21T04:01:53.901Z,1005.24
2023-04-21T04:02:53.959Z,1005.23
2023-04-21T04:03:32.937Z,1005.31
2023-04-21T04:04:32.985Z,1005.27
2023-04-21T04:05:32.785Z,1005.27
2023-04-21T04:06:53.702Z,1005.26
2023-04-21T04:07:53.711Z,1005.26
2023-04-21T04:08:32.638Z,1005.19
2023-04-21T04:09:32.624Z,1005.23
2023-04-21T04:10:32.555Z,1005.21
2023-04-21T04:11:53.525Z,1005.19
2023-04-21T04:12:53.487Z,1005.23
2023-04-21T04:13:32.469Z,1005.20
2023-04-21T04:14:32.422Z,1005.22
2023-04-21T04:15:32.434Z,1005.22
2023-04-21T04:16:53.344Z,1005.24
2023-04-21T04:17:53.373Z,1005.23
2023-04-21T04:18:32.271Z,1005.24
2023-04-21T04:19:32.264Z,1005.24
2023-04-21T04:20:32.196Z,1005.22
2023-04-21T04:21:53.150Z,1005.18
2023-04-21T04:22:53.132Z,1005.20
2023-04-21T04:23:32.107Z,1005.21
2023-04-21T04:24:32.048Z,1005.19
2023-04-21T04:25:32.027Z,1005.25
2023-04-21T04:26:52.994Z,1005.26
2023-04-21T04:27:52.950Z,1005.21
2023-04-21T04:28:31.915Z,1005.23
2023-04-21T04:29:31.869Z,1005.23
2023-04-21T04:30:31.856Z,1005.21
2023-04-21T04:31:52.820Z,1005.18
2023-04-21T04:32:52.800Z,1005.20
2023-04-21T04:33:31.736Z,1005.25
2023-04-21T04:34:31.708Z,1005.23
2023-04-21T04:35:32.484Z,1005.22
2023-04-21T04:36:52.593Z,1005.21
2023-04-21T04:37:52.577Z,1005.23
2023-04-21T04:38:31.525Z,1005.27
2023-04-21T04:39:31.513Z,1005.25
2023-04-21T04:40:31.467Z,1005.25
2023-04-21T04:41:52.437Z,1005.24
2023-04-21T04:42:52.386Z,1005.24
2023-04-21T04:43:31.369Z,1005.24
2023-04-21T04:44:31.317Z,1005.21
2023-04-21T04:45:31.269Z,1005.24
2023-04-21T04:46:52.314Z,1005.21
2023-04-21T04:47:52.283Z,1005.20
2023-04-21T04:48:31.158Z,1005.17
2023-04-21T04:49:31.126Z,1005.17
2023-04-21T04:50:31.087Z,1005.14
2023-04-21T04:51:52.052Z,1005.15
2023-04-21T04:52:52.002Z,1005.17
2023-04-21T04:53:30.995Z,1005.18
2023-04-21T04:54:30.944Z,1005.22
2023-04-21T04:55:30.919Z,1005.22
2023-04-21T04:56:51.855Z,1005.22
2023-04-21T04:57:51.843Z,1005.23
2023-04-21T04:58:30.788Z,1005.22
2023-04-21T04:59:30.813Z,1005.26
2023-04-21T05:00:30.727Z,1005.26
2023-04-21T05:01:51.780Z,1005.27
2023-04-21T05:02:51.756Z,1005.30
2023-04-21T05:03:30.745Z,1005.26
2023-04-21T05:04:30.766Z,1005.28
2023-04-21T05:05:30.582Z,1005.27
2023-04-21T05:06:51.583Z,1005.25
2023-04-21T05:07:51.491Z,1005.26
2023-04-21T05:08:30.481Z,1005.24
2023-04-21T05:09:30.407Z,1005.29
2023-04-21T05:10:30.373Z,1005.28
2023-04-21T05:11:51.332Z,1005.30
2023-04-21T05:12:51.286Z,1005.30
2023-04-21T05:13:30.247Z,1005.30
2023-04-21T05:14:30.238Z,1005.29
2023-04-21T05:15:30.160Z,1005.31
2023-04-21T05:16:51.204Z,1005.28
2023-04-21T05:17:51.111Z,1005.29
2023-04-21T05:18:30.079Z,1005.29
2023-04-21T05:19:30.031Z,1005.28
2023-04-21T05:20:29.993Z,1005.29
2023-04-21T05:21:50.938Z,1005.30
2023-04-21T05:22:50.927Z,1005.36
2023-04-21T05:23:29.872Z,1005.36
2023-04-21T05:24:29.843Z,1005.33
2023-04-21T05:25:29.803Z,1005.31
2023-04-21T05:26:50.769Z,1005.27
2023-04-21T05:27:50.724Z,1005.28
2023-04-21T05:28:29.723Z,1005.28
2023-04-21T05:29:29.685Z,1005.32
2023-04-21T05:30:29.633Z,1005.35
2023-04-21T05:31:50.665Z,1005.37
2023-04-21T05:32:50.631Z,1005.34
2023-04-21T05:33:29.527Z,1005.36
2023-04-21T05:34:29.466Z,1005.34
2023-04-21T05:35:29.451Z,1005.33
2023-04-21T05:36:50.383Z,1005.30
2023-04-21T05:37:50.370Z,1005.30
2023-04-21T05:38:29.378Z,1005.28
2023-04-21T05:39:29.287Z,1005.29
2023-04-21T05:40:29.264Z,1005.29
2023-04-21T05:41:50.205Z,1005.29
2023-04-21T05:42:50.181Z,1005.35
2023-04-21T05:43:29.155Z,1005.38
2023-04-21T05:44:29.118Z,1005.38
2023-04-21T05:45:29.061Z,1005.40
2023-04-21T05:46:50.044Z,1005.42
2023-04-21T05:47:50.004Z,1005.42
2023-04-21T05:48:28.968Z,1005.45
2023-04-21T05:49:28.919Z,1005.42
2023-04-21T05:50:28.907Z,1005.46
2023-04-21T05:51:49.872Z,1005.42
2023-04-21T05:52:49.821Z,1005.43
2023-04-21T05:53:28.772Z,1005.44
2023-04-21T05:54:28.727Z,1005.47
2023-04-21T05:55:28.685Z,1005.45
2023-04-21T05:56:49.664Z,1005.44
2023-04-21T05:57:49.610Z,1005.47
2023-04-21T05:58:28.590Z,1005.47
2023-04-21T05:59:28.545Z,1005.45
2023-04-21T06:00:28.521Z,1005.47
2023-04-21T06:01:49.483Z,1005.45
2023-04-21T06:02:49.537Z,1005.47
2023-04-21T06:03:28.482Z,1005.48
2023-04-21T06:04:28.678Z,1005.48
2023-04-21T06:05:28.350Z,1005.47
2023-04-21T06:06:49.282Z,1005.46
2023-04-21T06:07:49.240Z,1005.43
2023-04-21T06:08:28.255Z,1005.42
2023-04-21T06:09:28.226Z,1005.43
2023-04-21T06:10:28.211Z,1005.44
2023-04-21T06:11:49.106Z,1005.42
2023-04-21T06:12:49.049Z,1005.44
2023-04-21T06:13:28.057Z,1005.43
2023-04-21T06:14:28.010Z,1005.46
2023-04-21T06:15:27.954Z,1005.34
2023-04-21T06:16:48.904Z,1005.33
2023-04-21T06:17:48.920Z,1005.30
2023-04-21T06:18:27.869Z,1005.33
2023-04-21T06:19:27.801Z,1005.33
2023-04-21T06:20:27.785Z,1005.34
2023-04-21T06:21:48.742Z,1005.28
2023-04-21T06:22:48.712Z,1005.32
2023-04-21T06:23:27.671Z,1005.35
2023-04-21T06:24:27.633Z,1005.36
2023-04-21T06:25:27.648Z,1005.33
2023-04-21T06:26:48.564Z,1005.33
2023-04-21T06:27:48.543Z,1005.35
2023-04-21T06:28:27.494Z,1005.31
2023-04-21T06:29:27.463Z,1005.34
2023-04-21T06:30:27.428Z,1005.37
2023-04-21T06:31:48.474Z,1005.38
2023-04-21T06:32:48.431Z,1005.38
2023-04-21T06:33:27.289Z,1005.36
2023-04-21T06:34:27.261Z,1005.36
2023-04-21T06:35:27.218Z,1005.32
2023-04-21T06:36:48.182Z,1005.34
2023-04-21T06:37:48.134Z,1005.30
2023-04-21T06:38:27.117Z,1005.32
2023-04-21T06:39:27.125Z,1005.27
2023-04-21T06:40:27.073Z,1005.26
2023-04-21T06:41:47.986Z,1005.26
2023-04-21T06:42:47.975Z,1005.21
2023-04-21T06:43:26.932Z,1005.24
2023-04-21T06:44:26.908Z,1005.20
2023-04-21T06:45:26.844Z,1005.21
2023-04-21T06:46:47.834Z,1005.28
2023-04-21T06:47:47.807Z,1005.27
2023-04-21T06:48:26.750Z,1005.32
2023-04-21T06:49:26.724Z,1005.32
2023-04-21T06:50:26.861Z,1005.29
2023-04-21T06:51:47.633Z,1005.31
2023-04-21T06:52:47.613Z,1005.35
2023-04-21T06:53:26.569Z,1005.37
2023-04-21T06:54:26.528Z,1005.32
2023-04-21T06:55:26.490Z,1005.36
2023-04-21T06:56:47.465Z,1005.39
2023-04-21T06:57:47.406Z,1005.33
2023-04-21T06:58:26.391Z,1005.34
2023-04-21T06:59:26.336Z,1005.34
2023-04-21T07:00:26.368Z,1005.37
2023-04-21T07:01:47.264Z,1005.32
2023-04-21T07:02:47.323Z,1005.36
2023-04-21T07:03:26.272Z,1005.37
2023-04-21T07:04:26.229Z,1005.35
2023-04-21T07:05:26.136Z,1005.35
2023-04-21T07:06:47.084Z,1005.35
2023-04-21T07:07:47.050Z,1005.39
2023-04-21T07:08:26.050Z,1005.34
2023-04-21T07:09:26.006Z,1005.34
2023-04-21T07:10:25.976Z,1005.34
2023-04-21T07:11:46.942Z,1005.30
2023-04-21T07:12:46.879Z,1005.30
2023-04-21T07:13:25.843Z,1005.26
2023-04-21T07:14:25.824Z,1005.29
2023-04-21T07:15:25.764Z,1005.26
2023-04-21T07:16:46.767Z,1005.26
2023-04-21T07:17:46.747Z,1005.23
2023-04-21T07:18:25.676Z,1005.26
2023-04-21T07:19:25.661Z,1005.25
2023-04-21T07:20:25.597Z,1005.25
2023-04-21T07:21:46.541Z,1005.28
2023-04-21T07:22:46.519Z,1005.26
2023-04-21T07:23:25.473Z,1005.25
2023-04-21T07:24:25.497Z,1005.25
2023-04-21T07:25:25.396Z,1005.26
2023-04-21T07:26:46.366Z,1005.24
2023-04-21T07:27:46.328Z,1005.22
2023-04-21T07:28:25.315Z,1005.22
2023-04-21T07:29:25.255Z,1005.23
2023-04-21T07:30:25.247Z,1005.20
2023-04-21T07:31:46.175Z,1005.24
2023-04-21T07:32:46.202Z,1005.22
2023-04-21T07:33:25.116Z,1005.21
2023-04-21T07:34:25.078Z,1005.25
2023-04-21T07:35:25.045Z,1005.29
2023-04-21T07:36:46.007Z,1005.31
2023-04-21T07:37:45.974Z,1005.27
2023-04-21T07:38:24.955Z,1005.27
2023-04-21T07:39:24.909Z,1005.28
2023-04-21T07:40:24.910Z,1005.26
2023-04-21T07:41:45.805Z,1005.24
2023-04-21T07:42:45.865Z,1005.28
2023-04-21T07:43:24.755Z,1005.33
2023-04-21T07:44:24.710Z,1005.30
2023-04-21T07:45:24.698Z,1005.29
2023-04-21T07:46:45.697Z,1005.27
2023-04-21T07:47:45.667Z,1005.27
2023-04-21T07:48:24.580Z,1005.29
2023-04-21T07:49:24.542Z,1005.30
2023-04-21T07:50:24.536Z,1005.31
2023-04-21T07:51:45.450Z,1005.32
2023-04-21T07:52:45.440Z,1005.30
2023-04-21T07:53:24.409Z,1005.34
2023-04-21T07:54:24.367Z,1005.31
2023-04-21T07:55:24.330Z,1005.32
2023-04-21T07:56:45.282Z,1005.31
2023-04-21T07:57:45.280Z,1005.29
2023-04-21T07:58:24.225Z,1005.34
2023-04-21T07:59:24.188Z,1005.35
2023-04-21T08:00:24.202Z,1005.35
2023-04-21T08:01:45.101Z,1005.39
2023-04-21T08:02:45.091Z,1005.42
2023-04-21T08:03:24.731Z,1005.42
2023-04-21T08:04:24.196Z,1005.44
2023-04-21T08:05:25.307Z,1005.40
2023-04-21T08:06:45.110Z,1005.38
2023-04-21T08:07:44.925Z,1005.43
2023-04-21T08:08:23.892Z,1005.45
2023-04-21T08:09:23.842Z,1005.45
2023-04-21T08:10:23.864Z,1005.41
2023-04-21T08:11:44.741Z,1005.43
2023-04-21T08:12:44.778Z,1005.41
2023-04-21T08:13:23.692Z,1005.35
2023-04-21T08:14:23.645Z,1005.33
2023-04-21T08:15:23.611Z,1005.29
2023-04-21T08:16:44.698Z,1005.29
2023-04-21T08:17:44.593Z,1005.26
2023-04-21T08:18:23.657Z,1005.28
2023-04-21T08:19:23.457Z,1005.30
2023-04-21T08:20:23.518Z,1005.27
2023-04-21T08:21:44.416Z,1005.27
2023-04-21T08:22:46.595Z,1005.25
2023-04-21T08:23:23.383Z,1005.23
2023-04-21T08:24:23.462Z,1005.24
2023-04-21T08:25:23.258Z,1005.27
2023-04-21T08:26:44.216Z,1005.26
2023-04-21T08:27:44.183Z,1005.29
2023-04-21T08:28:23.188Z,1005.25
2023-04-21T08:29:23.105Z,1005.25
2023-04-21T08:30:23.122Z,1005.25
2023-04-21T08:31:44.074Z,1005.27
2023-04-21T08:32:44.048Z,1005.23
2023-04-21T08:33:23.033Z,1005.24
2023-04-21T08:34:24.991Z,1005.30
2023-04-21T08:35:22.899Z,1005.27
2023-04-21T08:36:43.971Z,1005.29
2023-04-21T08:37:43.857Z,1005.29
2023-04-21T08:38:22.798Z,1005.33
2023-04-21T08:39:22.870Z,1005.33
2023-04-21T08:40:22.777Z,1005.32
2023-04-21T08:41:43.664Z,1005.36
2023-04-21T08:42:43.638Z,1005.33
2023-04-21T08:43:22.627Z,1005.31
2023-04-21T08:44:22.584Z,1005.33
2023-04-21T08:45:22.558Z,1005.32
2023-04-21T08:46:43.518Z,1005.27
2023-04-21T08:47:43.500Z,1005.28
2023-04-21T08:48:22.453Z,1005.28
2023-04-21T08:49:22.482Z,1005.27
2023-04-21T08:50:22.393Z,1005.23
2023-04-21T08:51:43.319Z,1005.22
2023-04-21T08:52:43.316Z,1005.22
2023-04-21T08:53:22.271Z,1005.19
2023-04-21T08:54:22.217Z,1005.13
2023-04-21T08:55:22.198Z,1005.15
2023-04-21T08:56:43.198Z,1005.14
2023-04-21T08:57:43.155Z,1005.13
2023-04-21T08:58:22.118Z,1005.08
2023-04-21T08:59:22.251Z,1005.12
2023-04-21T09:00:22.036Z,1005.13
2023-04-21T09:01:43.098Z,1005.09
2023-04-21T09:02:43.100Z,1005.14
2023-04-21T09:03:26.057Z,1005.09
2023-04-21T09:04:22.076Z,1005.06
2023-04-21T09:05:22.162Z,1005.07
2023-04-21T09:06:42.830Z,1005.05
2023-04-21T09:07:42.769Z,1005.06
2023-04-21T09:08:21.761Z,1005.06
2023-04-21T09:09:21.990Z,1005.15
2023-04-21T09:10:21.694Z,1005.11
2023-04-21T09:11:42.648Z,1005.11
2023-04-21T09:12:42.622Z,1005.15
2023-04-21T09:13:21.564Z,1005.12
2023-04-21T09:14:21.551Z,1005.08
2023-04-21T09:15:21.520Z,1005.11
2023-04-21T09:16:42.536Z,1005.13
2023-04-21T09:17:42.470Z,1005.11
2023-04-21T09:18:21.443Z,1005.12
2023-04-21T09:19:21.572Z,1005.11
2023-04-21T09:20:21.354Z,1005.15
2023-04-21T09:21:42.309Z,1005.13
2023-04-21T09:22:42.259Z,1005.15
2023-04-21T09:23:21.246Z,1005.14
2023-04-21T09:24:24.549Z,1005.15
2023-04-21T09:25:31.043Z,1005.14
2023-04-21T09:27:42.110Z,1005.12
2023-04-21T09:28:21.061Z,1005.11
2023-04-21T09:29:21.211Z,1005.09
2023-04-21T09:30:21.008Z,1005.11
2023-04-21T09:31:41.966Z,1005.01
2023-04-21T09:32:41.991Z,1005.05
2023-04-21T09:33:29.612Z,1005.07
2023-04-21T09:34:20.893Z,1005.05
2023-04-21T09:35:20.829Z,1005.03
2023-04-21T09:36:41.790Z,1005.02
2023-04-21T09:37:41.759Z,1005.08
2023-04-21T09:38:20.731Z,1005.02
2023-04-21T09:39:38.334Z,1004.98
2023-04-21T09:40:20.684Z,1004.99
2023-04-21T09:41:41.602Z,1004.96
2023-04-21T09:42:43.108Z,1004.97
2023-04-21T09:43:20.568Z,1004.96
2023-04-21T09:44:21.482Z,1004.98
2023-04-21T09:46:41.611Z,1005.00
2023-04-21T09:47:41.452Z,1004.98
2023-04-21T09:48:22.409Z,1004.95
2023-04-21T09:49:20.325Z,1004.95
2023-04-21T09:50:33.449Z,1004.93
2023-04-21T09:52:02.109Z,1004.95
2023-04-21T09:52:41.226Z,1004.96
2023-04-21T09:53:20.217Z,1004.99
2023-04-21T09:54:29.099Z,1004.94
2023-04-21T09:55:20.161Z,1004.93
2023-04-21T09:56:41.110Z,1004.90
2023-04-21T09:57:41.055Z,1004.84
2023-04-21T09:58:20.039Z,1004.84
2023-04-21T09:59:21.747Z,1004.83
2023-04-21T10:00:19.974Z,1004.82
2023-04-21T10:01:40.976Z,1004.77
2023-04-21T10:02:40.986Z,1004.83
2023-04-21T10:03:20.035Z,1004.81
2023-04-21T10:04:20.400Z,1004.77
2023-04-21T10:05:19.810Z,1004.77
2023-04-21T10:06:40.769Z,1004.77
2023-04-21T10:07:40.794Z,1004.73
2023-04-21T10:08:19.704Z,1004.76
2023-04-21T10:09:19.656Z,1004.78
2023-04-21T10:10:19.635Z,1004.71
2023-04-21T10:11:40.581Z,1004.73
2023-04-21T10:12:40.592Z,1004.68
2023-04-21T10:13:19.522Z,1004.67
2023-04-21T10:14:19.604Z,1004.64
2023-04-21T10:15:19.463Z,1004.67
2023-04-21T10:16:40.581Z,1004.64
2023-04-21T10:17:40.447Z,1004.61
2023-04-21T10:18:19.375Z,1004.66
2023-04-21T10:19:19.646Z,1004.64
2023-04-21T10:20:19.314Z,1004.64
2023-04-21T10:21:40.262Z,1004.62
2023-04-21T10:22:40.255Z,1004.65
2023-04-21T10:23:19.202Z,1004.61
2023-04-21T10:24:19.434Z,1004.58
2023-04-21T10:25:19.177Z,1004.64
2023-04-21T10:26:40.109Z,1004.60
2023-04-21T10:27:40.070Z,1004.58
2023-04-21T10:28:19.074Z,1004.54
2023-04-21T10:29:19.234Z,1004.52
2023-04-21T10:30:18.973Z,1004.47
2023-04-21T10:31:40.044Z,1004.45
2023-04-21T10:32:40.010Z,1004.52
2023-04-21T10:33:18.888Z,1004.47
2023-04-21T10:34:19.020Z,1004.46
2023-04-21T10:35:18.826Z,1004.47
2023-04-21T10:36:39.801Z,1004.40
2023-04-21T10:37:39.744Z,1004.34
2023-04-21T10:38:18.735Z,1004.40
2023-04-21T10:39:18.868Z,1004.35
2023-04-21T10:40:18.652Z,1004.38
2023-04-21T10:41:39.617Z,1004.37
2023-04-21T10:42:39.568Z,1004.32
2023-04-21T10:43:18.544Z,1004.35
2023-04-21T10:44:18.818Z,1004.36
2023-04-21T10:45:18.512Z,1004.38
2023-04-21T10:46:39.663Z,1004.42
2023-04-21T10:47:39.447Z,1004.37
2023-04-21T10:48:18.387Z,1004.36
2023-04-21T10:49:18.378Z,1004.28
2023-04-21T10:50:18.338Z,1004.22
2023-04-21T10:51:39.294Z,1004.20
2023-04-21T10:52:39.266Z,1004.20
2023-04-21T10:53:18.281Z,1004.18
2023-04-21T10:54:18.487Z,1004.15
2023-04-21T10:55:18.197Z,1004.09
2023-04-21T10:56:39.155Z,1004.09
2023-04-21T10:57:39.101Z,1004.05
2023-04-21T10:58:18.102Z,1004.00
2023-04-21T10:59:18.081Z,1003.99
2023-04-21T11:00:18.016Z,1004.02
2023-04-21T11:01:39.033Z,1004.01
2023-04-21T11:02:41.072Z,1004.02
2023-04-21T11:03:18.144Z,1004.04
2023-04-21T11:04:18.189Z,1004.00
2023-04-21T11:05:17.871Z,1003.99
2023-04-21T11:06:38.870Z,1003.99
2023-04-21T11:07:38.816Z,1004.02
2023-04-21T11:08:17.770Z,1003.95
2023-04-21T11:09:17.756Z,1003.98
2023-04-21T11:10:17.716Z,1004.00
2023-04-21T11:11:38.670Z,1004.00
2023-04-21T11:12:38.681Z,1003.98
2023-04-21T11:13:17.637Z,1003.94
2023-04-21T11:14:17.763Z,1003.93
2023-04-21T11:15:17.556Z,1003.94
2023-04-21T11:16:38.612Z,1003.93
2023-04-21T11:17:38.625Z,1003.84
2023-04-21T11:18:17.468Z,1003.88
2023-04-21T11:19:17.442Z,1003.79
2023-04-21T11:20:17.441Z,1003.81
2023-04-21T11:21:38.376Z,1003.76
2023-04-21T11:22:38.381Z,1003.73
2023-04-21T11:23:17.305Z,1003.65
2023-04-21T11:24:17.515Z,1003.67
2023-04-21T11:25:17.262Z,1003.68
2023-04-21T11:26:38.231Z,1003.66
2023-04-21T11:27:38.196Z,1003.60
2023-04-21T11:28:17.158Z,1003.64
2023-04-21T11:29:17.150Z,1003.61
2023-04-21T11:30:17.101Z,1003.59
2023-04-21T11:31:38.192Z,1003.57
2023-04-21T11:32:38.505Z,1003.54
2023-04-21T11:33:17.105Z,1003.51
2023-04-21T11:34:17.105Z,1003.51
2023-04-21T11:35:17.005Z,1003.48
2023-04-21T11:36:37.944Z,1003.49
2023-04-21T11:37:37.935Z,1003.52
2023-04-21T11:38:16.889Z,1003.46
2023-04-21T11:39:17.268Z,1003.47
2023-04-21T11:40:16.850Z,1003.43
2023-04-21T11:41:37.820Z,1003.47
2023-04-21T11:42:37.772Z,1003.47
2023-04-21T11:43:16.773Z,1003.44
2023-04-21T11:44:16.716Z,1003.39
2023-04-21T11:45:16.695Z,1003.34
2023-04-21T11:46:37.751Z,1003.37
2023-04-21T11:47:37.682Z,1003.44
2023-04-21T11:48:16.632Z,1003.40
2023-04-21T11:49:16.584Z,1003.36
2023-04-21T11:50:16.582Z,1003.36
2023-04-21T11:51:37.614Z,1003.29
2023-04-21T11:52:37.751Z,1003.23
2023-04-21T11:53:16.493Z,1003.24
2023-04-21T11:54:16.453Z,1003.31
2023-04-21T11:55:16.448Z,1003.34
2023-04-21T11:56:37.392Z,1003.30
2023-04-21T11:57:37.401Z,1003.21
2023-04-21T11:58:16.350Z,1003.25
2023-04-21T11:59:16.340Z,1003.28
2023-04-21T12:00:16.305Z,1003.24
2023-04-21T12:01:37.268Z,1003.27
2023-04-21T12:02:37.387Z,1003.31
2023-04-21T12:03:16.385Z,1003.26
2023-04-21T12:04:16.562Z,1003.18
2023-04-21T12:05:16.173Z,1003.15
2023-04-21T12:06:37.153Z,1003.21
2023-04-21T12:07:37.115Z,1003.21